createdAt,value
2023-03-05T00:01:27.833Z,100032.34
2023-03-05T00:03:56.710Z,100044.25
2023-03-05T00:06:26.831Z,100036.63
2023-03-05T00:08:54.271Z,100028.91
2023-03-05T00:11:21.755Z,100021.06
2023-03-05T00:13:51.613Z,100028.84
2023-03-05T00:16:19.001Z,100029.69
2023-03-05T00:18:46.745Z,100026.28
2023-03-05T00:21:24.703Z,100022.81
2023-03-05T00:23:53.163Z,100016.00
2023-03-05T00:26:21.610Z,100010.91
2023-03-05T00:28:50.477Z,100010.91
2023-03-05T00:31:19.967Z,100008.34
2023-03-05T00:33:47.346Z,99997.09
2023-03-05T00:36:14.432Z,100004.03
2023-03-05T00:38:41.487Z,100005.63
2023-03-05T00:41:09.380Z,100002.31
2023-03-05T00:43:36.482Z,99995.38
2023-03-05T00:46:03.873Z,100006.50
2023-03-05T00:48:31.115Z,99996.25
2023-03-05T00:50:58.172Z,99990.31
2023-03-05T00:53:25.649Z,99990.31
2023-03-05T00:55:52.718Z,99991.94
2023-03-05T00:58:20.135Z,99986.97
2023-03-05T01:00:50.754Z,99971.53
2023-03-05T01:03:20.598Z,99978.34
2023-03-05T01:05:48.684Z,99975.75
2023-03-05T01:08:17.066Z,99968.06
2023-03-05T01:10:44.160Z,99970.75
2023-03-05T01:13:11.332Z,99969.94
2023-03-05T01:15:38.369Z,99959.69
2023-03-05T01:18:05.726Z,99960.53
2023-03-05T01:20:32.866Z,99965.53
2023-03-05T01:23:01.985Z,99963.75
2023-03-05T01:25:29.166Z,99949.44
2023-03-05T01:27:56.631Z,99959.56
2023-03-05T01:30:23.759Z,99948.34
2023-03-05T01:32:50.869Z,99960.28
2023-03-05T01:35:21.385Z,99947.38
2023-03-05T01:37:48.805Z,99945.63
2023-03-05T01:40:19.907Z,99948.97
2023-03-05T01:42:49.278Z,99951.72
2023-03-05T01:45:19.028Z,99947.47
2023-03-05T01:47:46.310Z,99943.16
2023-03-05T01:50:23.364Z,99938.16
2023-03-05T01:53:06.958Z,99944.13
2023-03-05T01:55:37.228Z,99940.72
2023-03-05T01:58:11.797Z,99940.69
2023-03-05T02:00:44.539Z,99937.19
2023-03-05T02:03:14.010Z,99936.50
2023-03-05T02:05:43.511Z,99938.16
2023-03-05T02:08:22.951Z,99927.00
2023-03-05T02:10:58.295Z,99922.03
2023-03-05T02:13:28.393Z,99913.59
2023-03-05T02:15:59.373Z,99913.41
2023-03-05T02:18:27.275Z,99921.97
2023-03-05T02:20:57.245Z,99918.47
2023-03-05T02:23:27.508Z,99909.94
2023-03-05T02:25:55.404Z,99913.28
2023-03-05T02:28:25.360Z,99906.47
2023-03-05T02:30:52.832Z,99901.53
2023-03-05T02:33:21.294Z,99899.81
2023-03-05T02:35:49.262Z,99902.22
2023-03-05T02:38:19.179Z,99891.16
2023-03-05T02:40:46.356Z,99887.09
2023-03-05T02:43:15.183Z,99882.88
2023-03-05T02:45:42.436Z,99879.41
2023-03-05T02:48:09.708Z,99882.88
2023-03-05T02:50:37.443Z,99865.53
2023-03-05T02:53:04.586Z,99862.25
2023-03-05T02:55:31.732Z,99837.03
2023-03-05T02:58:00.147Z,99810.69
2023-03-05T03:00:28.009Z,99828.41
2023-03-05T03:02:55.837Z,99864.09
2023-03-05T03:05:23.017Z,99869.19
2023-03-05T03:07:50.844Z,99866.72
2023-03-05T03:10:18.119Z,99860.84
2023-03-05T03:12:45.414Z,99859.13
2023-03-05T03:15:15.079Z,99861.75
2023-03-05T03:17:42.727Z,99852.53
2023-03-05T03:20:14.218Z,99849.28
2023-03-05T03:22:42.557Z,99846.06
2023-03-05T03:25:11.188Z,99836.72
2023-03-05T03:27:38.345Z,99836.09
2023-03-05T03:30:06.533Z,99818.34
2023-03-05T03:32:34.679Z,99817.69
2023-03-05T03:35:01.937Z,99810.13
2023-03-05T03:37:29.439Z,99804.22
2023-03-05T03:39:56.834Z,99819.44
2023-03-05T03:42:24.294Z,99808.50
2023-03-05T03:44:51.727Z,99811.13
2023-03-05T03:47:19.119Z,99797.63
2023-03-05T03:49:46.209Z,99787.47
2023-03-05T03:52:13.234Z,99787.63
2023-03-05T03:54:40.312Z,99787.78
2023-03-05T03:57:07.587Z,99778.50
2023-03-05T03:59:34.707Z,99787.00
2023-03-05T04:02:01.809Z,99783.69
2023-03-05T04:04:30.473Z,99780.28
2023-03-05T04:06:58.035Z,99785.44
2023-03-05T04:09:25.028Z,99775.31
2023-03-05T04:11:52.046Z,99758.31
2023-03-05T04:14:19.178Z,99754.16
2023-03-05T04:16:46.198Z,99749.06
2023-03-05T04:19:13.323Z,99746.00
2023-03-05T04:21:40.483Z,99765.56
2023-03-05T04:24:08.525Z,99752.88
2023-03-05T04:26:35.949Z,99752.88
2023-03-05T04:29:03.021Z,99758.06
2023-03-05T04:31:30.225Z,99761.47
2023-03-05T04:33:57.359Z,99763.22
2023-03-05T04:36:24.508Z,99757.25
2023-03-05T04:38:51.621Z,99756.41
2023-03-05T04:41:18.652Z,99741.91
2023-03-05T04:43:45.776Z,99747.91
2023-03-05T04:46:12.897Z,99745.47
2023-03-05T04:48:39.921Z,99735.25
2023-03-05T04:51:06.974Z,99739.63
2023-03-05T04:53:34.031Z,99734.47
2023-03-05T04:56:01.799Z,99735.34
2023-03-05T04:58:29.451Z,99732.00
2023-03-05T05:01:06.038Z,99729.41
2023-03-05T05:03:33.311Z,99733.72
2023-03-05T05:06:01.224Z,99723.63
2023-03-05T05:08:29.107Z,99725.31
2023-03-05T05:11:01.058Z,99727.94
2023-03-05T05:13:28.926Z,99717.72
2023-03-05T05:15:56.827Z,99722.94
2023-03-05T05:18:24.657Z,99718.63
2023-03-05T05:20:51.720Z,99718.78
2023-03-05T05:23:18.960Z,99720.53
2023-03-05T05:25:45.991Z,99718.84
2023-03-05T05:28:13.328Z,99712.00
2023-03-05T05:30:40.444Z,99718.09
2023-03-05T05:33:07.443Z,99707.78
2023-03-05T05:35:34.527Z,99714.63
2023-03-05T05:38:01.584Z,99725.75
2023-03-05T05:40:28.608Z,99719.94
2023-03-05T05:42:55.693Z,99714.78
2023-03-05T05:45:23.018Z,99715.84
2023-03-05T05:47:50.039Z,99719.16
2023-03-05T05:50:18.923Z,99720.91
2023-03-05T05:52:46.020Z,99719.22
2023-03-05T05:55:13.863Z,99728.63
2023-03-05T05:57:41.129Z,99721.69
2023-03-05T06:00:11.063Z,99728.53
2023-03-05T06:02:43.706Z,99730.94
2023-03-05T06:05:13.779Z,99724.94
2023-03-05T06:07:41.026Z,99717.31
2023-03-05T06:10:10.084Z,99718.94
2023-03-05T06:12:37.456Z,99716.47
2023-03-05T06:15:05.112Z,99718.22
2023-03-05T06:17:32.147Z,99714.78
2023-03-05T06:20:00.103Z,99715.53
2023-03-05T06:22:27.231Z,99714.13
2023-03-05T06:24:54.303Z,99709.94
2023-03-05T06:27:21.468Z,99703.16
2023-03-05T06:29:51.949Z,99702.53
2023-03-05T06:32:19.084Z,99708.56
2023-03-05T06:34:46.168Z,99693.13
2023-03-05T06:37:13.240Z,99703.63
2023-03-05T06:39:40.369Z,99667.66
2023-03-05T06:42:07.638Z,99696.09
2023-03-05T06:44:34.722Z,99702.16
2023-03-05T06:47:01.831Z,99695.50
2023-03-05T06:49:28.988Z,99694.66
2023-03-05T06:51:56.030Z,99698.94
2023-03-05T06:54:23.314Z,99699.91
2023-03-05T06:56:50.410Z,99699.13
2023-03-05T06:59:17.986Z,99694.03
2023-03-05T07:01:45.942Z,99694.03
2023-03-05T07:04:13.917Z,99700.97
2023-03-05T07:06:45.109Z,99698.41
2023-03-05T07:09:15.255Z,99697.63
2023-03-05T07:11:42.458Z,99693.97
2023-03-05T07:14:09.560Z,99693.97
2023-03-05T07:16:36.782Z,99688.03
2023-03-05T07:19:06.684Z,99695.00
2023-03-05T07:21:36.052Z,99695.16
2023-03-05T07:24:05.070Z,99699.47
2023-03-05T07:26:33.730Z,99696.97
2023-03-05T07:29:01.732Z,99691.91
2023-03-05T07:31:32.361Z,99694.50
2023-03-05T07:34:01.844Z,99683.50
2023-03-05T07:36:29.451Z,99691.19
2023-03-05T07:38:56.600Z,99688.59
2023-03-05T07:41:23.962Z,99677.44
2023-03-05T07:43:53.641Z,99686.69
2023-03-05T07:46:23.946Z,99687.47
2023-03-05T07:48:51.125Z,99680.75
2023-03-05T07:51:20.322Z,99685.91
2023-03-05T07:53:49.870Z,99677.38
2023-03-05T07:56:25.213Z,99684.09
2023-03-05T07:58:53.465Z,99677.28
2023-03-05T08:01:21.057Z,99682.38
2023-03-05T08:03:48.331Z,99680.75
2023-03-05T08:06:16.094Z,99670.63
2023-03-05T08:08:43.356Z,99669.06
2023-03-05T08:11:13.137Z,99675.94
2023-03-05T08:13:41.505Z,99669.22
2023-03-05T08:16:14.979Z,99664.13
2023-03-05T08:18:42.427Z,99669.34
2023-03-05T08:21:20.598Z,99671.84
2023-03-05T08:23:50.722Z,99675.41
2023-03-05T08:26:19.502Z,99668.69
2023-03-05T08:28:46.790Z,99667.84
2023-03-05T08:31:16.539Z,99663.66
2023-03-05T08:33:43.918Z,99661.13
2023-03-05T08:36:11.223Z,99659.59
2023-03-05T08:38:38.370Z,99662.34
2023-03-05T08:41:06.177Z,99646.19
2023-03-05T08:43:33.507Z,99649.75
2023-03-05T08:46:01.795Z,99653.41
2023-03-05T08:48:29.626Z,99651.91
2023-03-05T08:50:56.799Z,99651.91
2023-03-05T08:53:24.546Z,99648.50
2023-03-05T08:55:56.470Z,99642.56
2023-03-05T08:58:24.277Z,99645.06
2023-03-05T09:00:53.989Z,99642.59
2023-03-05T09:03:21.127Z,99641.91
2023-03-05T09:05:48.744Z,99638.50
2023-03-05T09:08:16.130Z,99632.50
2023-03-05T09:10:43.370Z,99636.75
2023-03-05T09:13:10.777Z,99641.91
2023-03-05T09:15:38.971Z,99636.94
2023-03-05T09:18:06.763Z,99632.78
2023-03-05T09:20:34.148Z,99633.69
2023-03-05T09:23:01.583Z,99637.13
2023-03-05T09:25:28.852Z,99643.81
2023-03-05T09:27:56.019Z,99640.31
2023-03-05T09:30:23.327Z,99635.19
2023-03-05T09:32:51.452Z,99630.97
2023-03-05T09:35:18.657Z,99635.28
2023-03-05T09:37:45.763Z,99631.03
2023-03-05T09:40:19.096Z,99631.97
2023-03-05T09:43:01.125Z,99637.13
2023-03-05T09:45:37.034Z,99632.09
2023-03-05T09:48:16.781Z,99630.50
2023-03-05T09:50:48.509Z,99632.16
2023-03-05T09:53:26.035Z,99630.50
2023-03-05T09:55:55.970Z,99623.78
2023-03-05T09:58:30.098Z,99620.38
2023-03-05T10:01:09.189Z,99619.63
2023-03-05T10:03:59.980Z,99617.09
2023-03-05T10:06:37.448Z,99618.78
2023-03-05T10:09:12.930Z,99624.78
2023-03-05T10:11:43.101Z,99616.28
2023-03-05T10:14:22.443Z,99617.03
2023-03-05T10:17:27.312Z,99617.09
2023-03-05T10:20:15.990Z,99615.44
2023-03-05T10:23:13.179Z,99612.16
2023-03-05T10:26:02.455Z,99613.78
2023-03-05T10:28:48.509Z,99613.88
2023-03-05T10:31:42.895Z,99613.94
2023-03-05T10:34:33.940Z,99611.50
2023-03-05T10:37:22.709Z,99612.34
2023-03-05T10:40:00.868Z,99613.28
2023-03-05T10:42:39.941Z,99608.16
2023-03-05T10:45:35.373Z,99603.06
2023-03-05T10:48:06.528Z,99602.06
2023-03-05T10:50:40.277Z,99603.66
2023-03-05T10:53:17.293Z,99600.22
2023-03-05T10:55:44.573Z,99602.75
2023-03-05T10:58:13.912Z,99601.91
2023-03-05T11:00:57.593Z,99597.66
2023-03-05T11:03:26.230Z,99606.19
2023-03-05T11:06:02.223Z,99600.16
2023-03-05T11:08:36.860Z,99600.22
2023-03-05T11:11:10.152Z,99608.84
2023-03-05T11:13:45.047Z,99608.00
2023-03-05T11:16:25.887Z,99613.84
2023-03-05T11:19:22.623Z,99614.44
2023-03-05T11:22:08.633Z,99608.44
2023-03-05T11:24:35.756Z,99605.16
2023-03-05T11:27:21.469Z,99596.72
2023-03-05T11:29:49.970Z,99602.91
2023-03-05T11:32:22.910Z,99600.56
2023-03-05T11:34:50.140Z,99588.72
2023-03-05T11:37:30.651Z,99584.72
2023-03-05T11:40:20.688Z,99567.09
2023-03-05T11:42:56.880Z,99562.13
2023-03-05T11:45:26.507Z,99556.41
2023-03-05T11:47:57.690Z,99557.44
2023-03-05T11:50:30.332Z,99549.09
2023-03-05T11:53:20.944Z,99550.00
2023-03-05T11:56:39.535Z,99549.25
2023-03-05T11:59:25.259Z,99538.25
2023-03-05T12:01:55.067Z,99547.81
2023-03-05T12:04:23.861Z,99551.34
2023-03-05T12:06:54.952Z,99548.91
2023-03-05T12:09:42.383Z,99543.00
2023-03-05T12:12:21.142Z,99550.00
2023-03-05T12:15:03.164Z,99550.06
2023-03-05T12:18:02.262Z,99546.72
2023-03-05T12:20:44.291Z,99538.31
2023-03-05T12:23:15.061Z,99536.69
2023-03-05T12:25:48.637Z,99534.16
2023-03-05T12:28:37.338Z,99546.97
2023-03-05T12:31:23.933Z,99548.72
2023-03-05T12:33:51.036Z,99551.25
2023-03-05T12:36:20.771Z,99550.34
2023-03-05T12:38:55.837Z,99553.69
2023-03-05T12:41:22.884Z,99552.00
2023-03-05T12:44:07.910Z,99551.84
2023-03-05T12:46:44.853Z,99551.66
2023-03-05T12:49:20.815Z,99549.94
2023-03-05T12:51:53.168Z,99544.81
2023-03-05T12:54:23.035Z,99537.13
2023-03-05T12:56:52.712Z,99538.84
2023-03-05T12:59:22.706Z,99532.00
2023-03-05T13:01:59.766Z,99532.97
2023-03-05T13:04:32.873Z,99531.25
2023-03-05T13:07:06.678Z,99535.56
2023-03-05T13:09:36.587Z,99534.69
2023-03-05T13:12:11.754Z,99540.75
2023-03-05T13:14:57.548Z,99532.25
2023-03-05T13:17:29.318Z,99533.09
2023-03-05T13:19:58.175Z,99532.19
2023-03-05T13:22:25.806Z,99527.94
2023-03-05T13:25:11.969Z,99536.53
2023-03-05T13:27:39.394Z,99530.63
2023-03-05T13:30:07.158Z,99527.97
2023-03-05T13:32:34.296Z,99532.22
2023-03-05T13:35:02.369Z,99523.72
2023-03-05T13:37:34.900Z,99533.16
2023-03-05T13:40:07.547Z,99527.22
2023-03-05T13:42:36.446Z,99522.13
2023-03-05T13:45:27.071Z,99522.97
2023-03-05T13:48:00.388Z,99516.09
2023-03-05T13:50:39.432Z,99522.00
2023-03-05T13:53:18.241Z,99527.88
2023-03-05T13:55:47.081Z,99514.97
2023-03-05T13:58:42.051Z,99516.59
2023-03-05T14:01:15.981Z,99512.31
2023-03-05T14:03:43.347Z,99511.44
2023-03-05T14:06:12.944Z,99508.03
2023-03-05T14:08:40.653Z,99503.72
2023-03-05T14:11:16.716Z,99507.97
2023-03-05T14:13:45.175Z,99507.13
2023-03-05T14:16:23.485Z,99508.75
2023-03-05T14:18:59.642Z,99501.03
2023-03-05T14:21:43.405Z,99489.13
2023-03-05T14:24:27.767Z,99484.78
2023-03-05T14:26:56.884Z,99489.06
2023-03-05T14:29:28.193Z,99490.66
2023-03-05T14:32:06.409Z,99484.59
2023-03-05T14:34:38.268Z,99496.34
2023-03-05T14:37:35.682Z,99489.47
2023-03-05T14:40:07.508Z,99492.19
2023-03-05T14:42:38.736Z,99489.78
2023-03-05T14:45:14.455Z,99483.13
2023-03-05T14:47:41.942Z,99491.81
2023-03-05T14:50:15.072Z,99490.19
2023-03-05T14:52:42.390Z,99479.91
2023-03-05T14:55:18.056Z,99484.94
2023-03-05T14:57:46.292Z,99483.25
2023-03-05T15:00:18.468Z,99483.28
2023-03-05T15:02:45.764Z,99471.41
2023-03-05T15:05:12.979Z,99479.88
2023-03-05T15:07:40.196Z,99478.16
2023-03-05T15:10:08.862Z,99468.69
2023-03-05T15:12:35.991Z,99467.75
2023-03-05T15:15:03.811Z,99471.00
2023-03-05T15:17:36.808Z,99469.19
2023-03-05T15:20:09.108Z,99474.34
2023-03-05T15:22:39.266Z,99472.50
2023-03-05T15:25:06.604Z,99475.81
2023-03-05T15:27:33.765Z,99445.69
2023-03-05T15:30:00.957Z,99479.03
2023-03-05T15:32:29.303Z,99473.00
2023-03-05T15:34:56.669Z,99472.03
2023-03-05T15:37:24.101Z,99473.72
2023-03-05T15:39:51.221Z,99483.13
2023-03-05T15:42:18.568Z,99475.34
2023-03-05T15:44:45.612Z,99484.69
2023-03-05T15:47:12.765Z,99490.59
2023-03-05T15:49:39.881Z,99487.09
2023-03-05T15:52:07.094Z,99488.63
2023-03-05T15:54:36.547Z,99497.78
2023-03-05T15:57:08.303Z,99512.88
2023-03-05T15:59:35.445Z,99505.88
2023-03-05T16:02:02.650Z,99504.78
2023-03-05T16:04:29.939Z,99502.84
2023-03-05T16:06:59.624Z,99497.63
2023-03-05T16:09:35.379Z,99499.28
2023-03-05T16:12:04.931Z,99502.78
2023-03-05T16:14:32.675Z,99487.38
2023-03-05T16:17:03.449Z,99499.28
2023-03-05T16:19:31.830Z,99495.81
2023-03-05T16:21:58.979Z,99502.59
2023-03-05T16:24:26.262Z,99492.38
2023-03-05T16:26:53.972Z,99504.28
2023-03-05T16:29:21.217Z,99493.16
2023-03-05T16:31:48.500Z,99495.69
2023-03-05T16:34:16.563Z,99491.34
2023-03-05T16:36:52.941Z,99488.72
2023-03-05T16:39:21.696Z,99491.22
2023-03-05T16:41:53.387Z,99490.31
2023-03-05T16:44:21.948Z,99490.19
2023-03-05T16:46:53.431Z,99477.25
2023-03-05T16:49:21.458Z,99490.03
2023-03-05T16:51:49.373Z,99483.19
2023-03-05T16:54:16.468Z,99490.00
2023-03-05T16:56:43.678Z,99490.00
2023-03-05T16:59:11.874Z,99493.31
2023-03-05T17:01:39.023Z,99497.59
2023-03-05T17:04:06.316Z,99486.44
2023-03-05T17:06:35.005Z,99492.47
2023-03-05T17:09:02.946Z,99500.88
2023-03-05T17:11:30.391Z,99496.66
2023-03-05T17:13:57.794Z,99496.66
2023-03-05T17:16:25.848Z,99498.41
2023-03-05T17:18:56.184Z,99489.81
2023-03-05T17:21:23.310Z,99500.03
2023-03-05T17:23:50.538Z,99503.41
2023-03-05T17:26:21.157Z,99502.53
2023-03-05T17:28:48.433Z,99499.09
2023-03-05T17:31:15.878Z,99511.78
2023-03-05T17:33:43.588Z,99500.72
2023-03-05T17:36:24.062Z,99508.34
2023-03-05T17:38:52.538Z,99500.66
2023-03-05T17:41:20.030Z,99495.56
2023-03-05T17:43:47.248Z,99487.78
2023-03-05T17:46:15.211Z,99477.56
2023-03-05T17:48:42.485Z,99475.81
2023-03-05T17:51:13.086Z,99462.09
2023-03-05T17:53:40.757Z,99465.41
2023-03-05T17:56:12.947Z,99475.56
2023-03-05T17:58:41.089Z,99467.00
2023-03-05T18:01:09.056Z,99478.84
2023-03-05T18:03:36.862Z,99476.31
2023-03-05T18:06:05.188Z,99480.66
2023-03-05T18:08:32.480Z,99481.56
2023-03-05T18:10:59.669Z,99483.22
2023-03-05T18:13:26.859Z,99482.34
2023-03-05T18:15:53.982Z,99484.13
2023-03-05T18:18:21.128Z,99467.91
2023-03-05T18:20:48.948Z,99474.72
2023-03-05T18:23:16.456Z,99479.81
2023-03-05T18:25:44.618Z,99485.06
2023-03-05T18:28:13.478Z,99477.34
2023-03-05T18:30:43.967Z,99474.00
2023-03-05T18:33:29.208Z,99484.09
2023-03-05T18:35:57.799Z,99480.66
2023-03-05T18:38:29.038Z,99480.53
2023-03-05T18:40:57.511Z,99485.63
2023-03-05T18:43:25.344Z,99484.53
2023-03-05T18:45:54.761Z,99476.81
2023-03-05T18:48:22.833Z,99481.75
2023-03-05T18:50:54.132Z,99482.53
2023-03-05T18:53:22.282Z,99483.34
2023-03-05T18:55:51.299Z,99484.03
2023-03-05T18:58:19.040Z,99481.50
2023-03-05T19:00:47.318Z,99481.41
2023-03-05T19:03:16.681Z,99483.88
2023-03-05T19:05:43.775Z,99488.88
2023-03-05T19:08:11.260Z,99484.50
2023-03-05T19:10:38.834Z,99491.28
2023-03-05T19:13:35.624Z,99482.63
2023-03-05T19:16:24.036Z,99491.88
2023-03-05T19:19:16.873Z,99495.19
2023-03-05T19:21:49.905Z,99491.72
2023-03-05T19:24:17.736Z,99489.97
2023-03-05T19:26:44.956Z,99485.59
2023-03-05T19:29:13.227Z,99485.56
2023-03-05T19:31:40.583Z,99488.06
2023-03-05T19:34:08.583Z,99488.81
2023-03-05T19:36:35.852Z,99482.03
2023-03-05T19:39:05.352Z,99487.03
2023-03-05T19:41:33.324Z,99478.34
2023-03-05T19:44:00.508Z,99482.59
2023-03-05T19:46:27.839Z,99488.50
2023-03-05T19:48:55.171Z,99454.22
2023-03-05T19:51:24.632Z,99484.13
2023-03-05T19:53:52.714Z,99474.69
2023-03-05T19:56:20.041Z,99481.41
2023-03-05T19:58:49.220Z,99485.50
2023-03-05T20:01:19.636Z,99482.88
2023-03-05T20:03:51.975Z,99480.28
2023-03-05T20:06:20.025Z,99481.13
2023-03-05T20:08:47.769Z,99486.22
2023-03-05T20:11:16.639Z,99488.72
2023-03-05T20:13:44.743Z,99484.50
2023-03-05T20:16:23.579Z,99482.81
2023-03-05T20:18:53.083Z,99477.72
2023-03-05T20:21:24.544Z,99481.97
2023-03-05T20:23:53.377Z,99478.50
2023-03-05T20:26:21.757Z,99480.97
2023-03-05T20:28:50.035Z,99475.84
2023-03-05T20:31:22.362Z,99483.44
2023-03-05T20:33:49.568Z,99472.41
2023-03-05T20:36:16.875Z,99474.81
2023-03-05T20:38:45.870Z,99479.19
2023-03-05T20:41:15.660Z,99475.75
2023-03-05T20:43:46.421Z,99470.59
2023-03-05T20:46:16.268Z,99470.53
2023-03-05T20:48:43.606Z,99463.72
2023-03-05T20:51:16.740Z,99447.44
2023-03-05T20:53:43.843Z,99459.44
2023-03-05T20:56:11.198Z,99462.75
2023-03-05T20:58:38.558Z,99460.97
2023-03-05T21:01:06.086Z,99453.44
2023-03-05T21:03:33.312Z,99460.03
2023-03-05T21:06:02.734Z,99453.28
2023-03-05T21:08:29.850Z,99449.81
2023-03-05T21:10:57.401Z,99443.75
2023-03-05T21:13:25.572Z,99423.00
2023-03-05T21:15:52.814Z,99449.59
2023-03-05T21:18:19.935Z,99457.19
2023-03-05T21:20:47.075Z,99449.59
2023-03-05T21:23:14.118Z,99456.38
2023-03-05T21:25:41.190Z,99450.38
2023-03-05T21:28:12.649Z,99446.84
2023-03-05T21:30:43.807Z,99450.22
2023-03-05T21:33:14.630Z,99451.13
2023-03-05T21:35:42.110Z,99444.09
2023-03-05T21:38:10.708Z,99449.31
2023-03-05T21:40:43.599Z,99449.22
2023-03-05T21:43:16.228Z,99454.31
2023-03-05T21:45:43.462Z,99455.94
2023-03-05T21:48:10.584Z,99446.53
2023-03-05T21:50:39.962Z,99444.69
2023-03-05T21:53:08.168Z,99442.19
2023-03-05T21:55:45.459Z,99448.91
2023-03-05T21:58:13.154Z,99447.16
2023-03-05T22:00:40.218Z,99440.41
2023-03-05T22:03:07.282Z,99438.56
2023-03-05T22:05:34.370Z,99435.13
2023-03-05T22:08:01.445Z,99432.50
2023-03-05T22:10:28.486Z,99436.78
2023-03-05T22:13:12.035Z,99434.88
2023-03-05T22:15:49.580Z,99435.63
2023-03-05T22:18:25.672Z,99439.78
2023-03-05T22:20:53.993Z,99432.97
2023-03-05T22:23:22.620Z,99426.22
2023-03-05T22:26:05.017Z,99415.91
2023-03-05T22:28:33.487Z,99414.16
2023-03-05T22:31:00.874Z,99417.53
2023-03-05T22:33:28.533Z,99424.41
2023-03-05T22:35:55.697Z,99421.06
2023-03-05T22:38:23.829Z,99418.53
2023-03-05T22:40:51.802Z,99415.91
2023-03-05T22:43:19.152Z,99415.91
2023-03-05T22:45:46.226Z,99419.16
2023-03-05T22:48:13.558Z,99414.00
2023-03-05T22:50:42.055Z,99420.81
2023-03-05T22:53:09.217Z,99408.75
2023-03-05T22:55:41.156Z,99414.69
2023-03-05T22:58:08.394Z,99417.19
2023-03-05T23:00:35.498Z,99407.81
2023-03-05T23:03:02.720Z,99419.56
2023-03-05T23:05:29.880Z,99413.44
2023-03-05T23:07:56.834Z,99406.69
2023-03-05T23:10:27.455Z,99416.13
2023-03-05T23:12:57.101Z,99417.75
2023-03-05T23:15:33.571Z,99404.75
2023-03-05T23:18:01.702Z,99408.13
2023-03-05T23:20:32.243Z,99419.19
2023-03-05T23:22:59.778Z,99406.41
2023-03-05T23:25:29.332Z,99409.81
2023-03-05T23:27:58.218Z,99416.53
2023-03-05T23:30:37.477Z,99413.84
2023-03-05T23:33:08.694Z,99413.75
2023-03-05T23:35:41.144Z,99412.69
2023-03-05T23:38:12.427Z,99407.72
2023-03-05T23:40:45.090Z,99410.25
2023-03-05T23:43:12.573Z,99394.91
2023-03-05T23:45:42.266Z,99395.72
2023-03-05T23:48:09.445Z,99406.75
2023-03-05T23:50:39.156Z,99405.09
2023-03-05T23:53:07.327Z,99392.28
2023-03-05T23:55:37.498Z,99395.63
2023-03-05T23:58:04.546Z,99400.78
